createdAt,value
2019-02-20T00:00:54.526Z,4.70
2019-02-20T00:03:23.700Z,4.97
2019-02-20T00:05:51.401Z,4.40
2019-02-20T00:08:20.597Z,3.67
2019-02-20T00:10:50.172Z,4.53
2019-02-20T00:13:18.511Z,5.17
2019-02-20T00:15:45.998Z,4.23
2019-02-20T00:18:15.046Z,4.80
2019-02-20T00:20:42.532Z,5.20
2019-02-20T00:23:11.831Z,4.00
2019-02-20T00:25:39.381Z,3.53
2019-02-20T00:28:06.771Z,4.33
2019-02-20T00:30:34.172Z,4.17
2019-02-20T00:33:01.612Z,3.90
2019-02-20T00:35:29.005Z,4.30
2019-02-20T00:37:56.471Z,4.13
2019-02-20T00:40:23.895Z,4.33
2019-02-20T00:42:51.439Z,4.40
2019-02-20T00:45:37.581Z,3.37
2019-02-20T00:48:17.071Z,4.00
2019-02-20T00:50:44.988Z,3.43
2019-02-20T00:53:19.768Z,4.47
2019-02-20T00:55:47.136Z,3.70
2019-02-20T00:58:14.579Z,3.50
2019-02-20T01:00:41.977Z,4.30
2019-02-20T01:03:09.412Z,3.57
2019-02-20T01:05:36.829Z,3.77
2019-02-20T01:08:04.366Z,3.83
2019-02-20T01:10:31.741Z,3.70
2019-02-20T01:12:59.203Z,3.67
2019-02-20T01:15:26.566Z,4.00
2019-02-20T01:17:54.020Z,3.93
2019-02-20T01:20:21.386Z,3.83
2019-02-20T01:22:48.882Z,3.97
2019-02-20T01:25:16.273Z,3.73
2019-02-20T01:27:43.756Z,3.50
2019-02-20T01:30:11.800Z,4.37
2019-02-20T01:32:39.233Z,4.60
2019-02-20T01:35:06.747Z,4.00
2019-02-20T01:37:34.223Z,4.30
2019-02-20T01:40:01.618Z,3.77
2019-02-20T01:42:29.051Z,4.20
2019-02-20T01:44:56.477Z,3.33
2019-02-20T01:47:23.936Z,4.00
2019-02-20T01:49:51.301Z,4.60
2019-02-20T01:52:18.759Z,4.23
2019-02-20T01:54:46.166Z,4.67
2019-02-20T01:57:13.591Z,4.50
2019-02-20T01:59:40.981Z,4.80
2019-02-20T02:02:08.481Z,4.87
2019-02-20T02:04:35.873Z,5.10
2019-02-20T02:07:03.326Z,4.97
2019-02-20T02:09:30.741Z,4.70
2019-02-20T02:11:58.285Z,5.20
2019-02-20T02:14:26.251Z,4.93
2019-02-20T02:16:53.621Z,5.13
2019-02-20T02:19:21.062Z,4.97
2019-02-20T02:21:48.466Z,4.80
2019-02-20T02:24:15.892Z,5.23
2019-02-20T02:26:43.256Z,5.63
2019-02-20T02:29:10.708Z,6.23
2019-02-20T02:31:38.090Z,5.50
2019-02-20T02:34:05.547Z,6.60
2019-02-20T02:36:34.538Z,7.07
2019-02-20T02:39:02.119Z,7.63
2019-02-20T02:41:29.505Z,7.20
2019-02-20T02:43:57.309Z,7.23
2019-02-20T02:46:24.681Z,7.67
2019-02-20T02:48:52.161Z,7.63
2019-02-20T02:51:19.552Z,8.87
2019-02-20T02:53:47.007Z,9.00
2019-02-20T02:56:14.446Z,8.83
2019-02-20T02:58:41.892Z,8.67
2019-02-20T03:01:09.268Z,9.33
2019-02-20T03:03:36.731Z,9.90
2019-02-20T03:06:04.120Z,10.63
2019-02-20T03:08:31.651Z,10.37
2019-02-20T03:10:59.086Z,11.00
2019-02-20T03:13:26.581Z,10.43
2019-02-20T03:15:53.951Z,9.70
2019-02-20T03:18:21.386Z,9.93
2019-02-20T03:20:49.271Z,11.37
2019-02-20T03:23:16.776Z,11.60
2019-02-20T03:25:44.163Z,11.67
2019-02-20T03:28:11.582Z,11.67
2019-02-20T03:30:39.008Z,11.43
2019-02-20T03:33:06.523Z,12.70
2019-02-20T03:35:34.006Z,11.73
2019-02-20T03:38:01.586Z,11.43
2019-02-20T03:40:29.057Z,11.63
2019-02-20T03:42:56.457Z,12.40
2019-02-20T03:45:23.907Z,13.70
2019-02-20T03:47:51.305Z,11.53
2019-02-20T03:50:18.779Z,11.37
2019-02-20T03:52:46.171Z,12.60
2019-02-20T03:55:13.591Z,12.30
2019-02-20T03:57:41.015Z,11.13
2019-02-20T04:00:08.656Z,12.53
2019-02-20T04:02:36.034Z,11.00
2019-02-20T04:05:03.827Z,12.43
2019-02-20T04:07:31.253Z,11.80
2019-02-20T04:09:58.636Z,12.80
2019-02-20T04:12:26.017Z,12.03
2019-02-20T04:14:53.449Z,12.03
2019-02-20T04:17:20.851Z,13.00
2019-02-20T04:19:48.272Z,12.87
2019-02-20T04:22:15.672Z,12.70
2019-02-20T04:24:43.125Z,14.13
2019-02-20T04:27:10.493Z,13.40
2019-02-20T04:29:37.949Z,13.10
2019-02-20T04:32:05.403Z,11.87
2019-02-20T04:34:32.826Z,13.10
2019-02-20T04:37:00.232Z,13.33
2019-02-20T04:39:27.655Z,12.57
2019-02-20T04:41:55.076Z,12.70
2019-02-20T04:44:22.555Z,13.67
2019-02-20T04:46:50.006Z,13.33
2019-02-20T04:49:17.386Z,12.97
2019-02-20T04:51:44.819Z,12.40
2019-02-20T04:54:13.714Z,13.13
2019-02-20T04:56:41.452Z,12.40
2019-02-20T04:59:08.821Z,13.77
2019-02-20T05:01:36.337Z,12.20
2019-02-20T05:04:03.751Z,11.70
2019-02-20T05:06:31.186Z,11.47
2019-02-20T05:08:58.577Z,12.77
2019-02-20T05:11:26.023Z,12.00
2019-02-20T05:13:53.435Z,11.67
2019-02-20T05:16:20.887Z,12.37
2019-02-20T05:18:48.277Z,12.57
2019-02-20T05:21:15.695Z,12.47
2019-02-20T05:23:43.147Z,11.03
2019-02-20T05:26:10.611Z,12.33
2019-02-20T05:28:38.019Z,13.23
2019-02-20T05:31:05.441Z,12.53
2019-02-20T05:33:32.876Z,12.47
2019-02-20T05:36:00.647Z,11.77
2019-02-20T05:38:28.047Z,12.20
2019-02-20T05:40:55.537Z,13.10
2019-02-20T05:43:23.024Z,12.27
2019-02-20T05:45:50.447Z,12.23
2019-02-20T05:48:17.812Z,12.47
2019-02-20T05:50:45.292Z,12.67
2019-02-20T05:53:12.695Z,11.17
2019-02-20T05:55:40.120Z,11.93
2019-02-20T05:58:07.528Z,12.07
2019-02-20T06:00:34.982Z,11.80
2019-02-20T06:03:02.351Z,11.90
2019-02-20T06:05:29.799Z,11.47
2019-02-20T06:07:57.401Z,10.87
2019-02-20T06:10:24.909Z,11.40
2019-02-20T06:13:07.474Z,12.63
2019-02-20T06:15:43.106Z,11.40
2019-02-20T06:18:17.041Z,11.07
2019-02-20T06:20:53.664Z,11.30
2019-02-20T06:23:26.589Z,12.23
2019-02-20T06:25:57.606Z,11.07
2019-02-20T06:28:49.262Z,11.63
2019-02-20T06:31:17.012Z,11.30
2019-02-20T06:33:47.434Z,11.90
2019-02-20T06:36:38.400Z,11.37
2019-02-20T06:39:05.772Z,10.53
2019-02-20T06:41:39.245Z,11.83
2019-02-20T06:44:03.127Z,11.53
2019-02-20T06:46:31.082Z,10.67
2019-02-20T06:48:59.644Z,12.43
2019-02-20T06:51:30.436Z,11.57
2019-02-20T06:53:58.174Z,11.73
2019-02-20T06:56:25.596Z,11.80
2019-02-20T06:58:53.006Z,11.43
2019-02-20T07:01:20.441Z,12.10
2019-02-20T07:03:47.822Z,11.67
2019-02-20T07:06:49.351Z,10.97
2019-02-20T07:10:31.672Z,11.50
2019-02-20T07:13:11.767Z,11.23
2019-02-20T07:15:59.527Z,12.13
2019-02-20T07:18:57.992Z,11.87
2019-02-20T07:22:02.729Z,11.20
2019-02-20T07:25:02.802Z,12.37
2019-02-20T07:28:14.228Z,11.70
2019-02-20T07:30:41.857Z,12.10
2019-02-20T07:33:09.561Z,11.77
2019-02-20T07:35:37.202Z,11.33
2019-02-20T07:38:04.894Z,11.80
2019-02-20T07:40:32.332Z,11.03
2019-02-20T07:43:00.056Z,11.53
2019-02-20T07:45:29.281Z,12.10
2019-02-20T07:47:56.802Z,10.57
2019-02-20T07:50:24.183Z,11.90
2019-02-20T07:52:51.897Z,11.97
2019-02-20T07:55:19.281Z,12.70
2019-02-20T07:57:46.741Z,11.87
2019-02-20T08:00:14.652Z,10.70
2019-02-20T08:02:42.133Z,12.07
2019-02-20T08:05:09.597Z,10.87
2019-02-20T08:07:37.066Z,12.60
2019-02-20T08:10:05.629Z,11.93
2019-02-20T08:12:33.080Z,11.47
2019-02-20T08:15:00.686Z,12.03
2019-02-20T08:17:28.206Z,11.03
2019-02-20T08:19:55.675Z,11.10
2019-02-20T08:22:23.266Z,11.53
2019-02-20T08:24:50.773Z,10.97
2019-02-20T08:27:18.437Z,10.57
2019-02-20T08:29:46.110Z,10.13
2019-02-20T08:32:13.759Z,10.57
2019-02-20T08:34:41.311Z,11.13
2019-02-20T08:37:08.838Z,12.47
2019-02-20T08:39:36.294Z,10.60
2019-02-20T08:42:04.046Z,11.40
2019-02-20T08:44:31.944Z,11.00
2019-02-20T08:46:59.383Z,10.83
2019-02-20T08:49:26.911Z,11.17
2019-02-20T08:51:54.396Z,10.73
2019-02-20T08:54:21.882Z,10.90
2019-02-20T08:56:49.347Z,10.67
2019-02-20T08:59:16.868Z,11.17
2019-02-20T09:01:44.331Z,10.87
2019-02-20T09:04:11.893Z,10.00
2019-02-20T09:06:39.311Z,11.00
2019-02-20T09:09:06.826Z,10.40
2019-02-20T09:11:34.233Z,9.37
2019-02-20T09:14:01.746Z,9.77
2019-02-20T09:16:29.478Z,10.40
2019-02-20T09:18:56.966Z,9.30
2019-02-20T09:21:24.350Z,8.83
2019-02-20T09:23:51.928Z,9.60
2019-02-20T09:26:19.366Z,8.70
2019-02-20T09:28:46.887Z,10.00
2019-02-20T09:31:14.286Z,9.13
2019-02-20T09:33:41.815Z,8.93
2019-02-20T09:36:09.367Z,9.73
2019-02-20T09:38:36.822Z,9.00
2019-02-20T09:41:04.236Z,8.73
2019-02-20T09:43:31.757Z,8.77
2019-02-20T09:45:59.416Z,8.63
2019-02-20T09:48:26.987Z,7.57
2019-02-20T09:50:54.552Z,8.40
2019-02-20T09:53:22.171Z,9.23
2019-02-20T09:55:51.835Z,8.10
2019-02-20T09:58:19.398Z,8.07
2019-02-20T10:00:46.901Z,6.50
2019-02-20T10:03:14.322Z,6.80
2019-02-20T10:05:41.888Z,6.03
2019-02-20T10:08:09.349Z,6.27
2019-02-20T10:10:36.836Z,6.10
2019-02-20T10:13:04.233Z,6.00
2019-02-20T10:15:31.752Z,5.20
2019-02-20T10:18:00.017Z,6.37
2019-02-20T10:20:28.019Z,5.87
2019-02-20T10:22:55.688Z,5.20
2019-02-20T10:25:23.352Z,5.27
2019-02-20T10:27:50.831Z,5.20
2019-02-20T10:30:18.479Z,5.63
2019-02-20T10:32:46.001Z,5.27
2019-02-20T10:35:13.456Z,5.63
2019-02-20T10:37:40.911Z,5.50
2019-02-20T10:40:08.887Z,4.30
2019-02-20T10:42:36.311Z,4.80
2019-02-20T10:45:04.497Z,5.50
2019-02-20T10:47:31.931Z,4.90
2019-02-20T10:49:59.459Z,4.90
2019-02-20T10:52:27.801Z,5.20
2019-02-20T10:54:57.698Z,4.93
2019-02-20T10:57:24.792Z,4.70
2019-02-20T10:59:52.269Z,4.30
2019-02-20T11:02:19.916Z,3.53
2019-02-20T11:04:47.386Z,4.40
2019-02-20T11:07:15.020Z,3.17
2019-02-20T11:09:42.391Z,4.40
2019-02-20T11:12:10.311Z,4.30
2019-02-20T11:14:38.397Z,4.17
2019-02-20T11:17:05.877Z,5.67
2019-02-20T11:19:35.596Z,4.10
2019-02-20T11:22:03.306Z,4.37
2019-02-20T11:24:30.746Z,4.10
2019-02-20T11:26:58.617Z,4.07
2019-02-20T11:29:26.398Z,4.10
2019-02-20T11:31:53.891Z,4.07
2019-02-20T11:34:21.386Z,3.87
2019-02-20T11:36:49.487Z,3.80
2019-02-20T11:39:17.181Z,3.80
2019-02-20T11:41:44.721Z,4.17
2019-02-20T11:44:20.653Z,3.70
2019-02-20T11:46:41.707Z,3.57
2019-02-20T11:49:09.176Z,3.77
2019-02-20T11:51:37.106Z,3.57
2019-02-20T11:54:04.521Z,4.20
2019-02-20T11:56:33.592Z,3.90
2019-02-20T11:59:02.206Z,3.90
2019-02-20T12:01:30.811Z,4.13
2019-02-20T12:03:58.801Z,4.20
2019-02-20T12:06:26.292Z,4.57
2019-02-20T12:08:55.642Z,3.77
2019-02-20T12:11:23.332Z,4.07
2019-02-20T12:13:50.916Z,3.57
2019-02-20T12:16:19.129Z,3.70
2019-02-20T12:18:46.632Z,3.60
2019-02-20T12:21:17.731Z,3.70
2019-02-20T12:23:46.677Z,3.70
2019-02-20T12:26:14.751Z,4.20
2019-02-20T12:28:43.281Z,3.37
2019-02-20T12:31:13.773Z,3.57
2019-02-20T12:33:42.047Z,3.70
2019-02-20T12:36:10.466Z,3.83
2019-02-20T12:38:38.666Z,4.17
2019-02-20T12:41:06.082Z,4.33
2019-02-20T12:43:35.475Z,4.40
2019-02-20T12:46:02.906Z,5.20
2019-02-20T12:48:30.502Z,4.43
2019-02-20T12:50:57.957Z,4.93
2019-02-20T12:53:25.526Z,5.73
2019-02-20T12:56:31.122Z,5.40
2019-02-20T12:59:07.979Z,6.30
2019-02-20T13:02:24.456Z,6.57
2019-02-20T13:16:25.546Z,6.27
2019-02-20T13:19:00.376Z,7.30
2019-02-20T13:21:32.370Z,7.70
2019-02-20T13:24:00.197Z,8.17
2019-02-20T13:26:27.835Z,8.07
2019-02-20T13:29:04.555Z,7.80
2019-02-20T13:31:59.831Z,8.83
2019-02-20T13:34:36.592Z,8.43
2019-02-20T13:37:17.260Z,10.00
2019-02-20T13:39:44.733Z,9.17
2019-02-20T13:42:35.935Z,9.40
2019-02-20T13:45:03.291Z,9.50
2019-02-20T13:47:31.141Z,9.80
2019-02-20T13:49:58.598Z,9.77
2019-02-20T13:52:31.126Z,10.00
2019-02-20T13:54:59.466Z,8.93
2019-02-20T13:57:32.666Z,10.03
2019-02-20T14:00:00.846Z,9.90
2019-02-20T14:02:28.356Z,9.17
2019-02-20T14:04:56.276Z,9.30
2019-02-20T14:07:23.786Z,9.57
2019-02-20T14:09:51.246Z,9.63
2019-02-20T14:12:19.351Z,10.00
2019-02-20T14:14:46.842Z,10.33
2019-02-20T14:17:14.274Z,9.20
2019-02-20T14:19:41.821Z,10.30
2019-02-20T14:22:09.316Z,9.33
2019-02-20T14:24:36.781Z,11.07
2019-02-20T14:27:10.558Z,10.90
2019-02-20T14:29:33.945Z,10.03
2019-02-20T14:32:01.427Z,10.60
2019-02-20T14:34:28.941Z,11.43
2019-02-20T14:36:56.471Z,10.83
2019-02-20T14:39:23.889Z,10.90
2019-02-20T14:41:51.298Z,10.90
2019-02-20T14:44:18.788Z,10.27
2019-02-20T14:46:46.272Z,12.20
2019-02-20T14:49:13.733Z,11.30
2019-02-20T14:51:42.028Z,10.83
2019-02-20T14:54:09.631Z,11.07
2019-02-20T14:56:37.083Z,12.10
2019-02-20T14:59:04.562Z,11.33
2019-02-20T15:01:32.099Z,11.03
2019-02-20T15:03:59.603Z,11.63
2019-02-20T15:06:28.225Z,11.37
2019-02-20T15:08:56.214Z,12.37
2019-02-20T15:11:23.679Z,11.87
2019-02-20T15:13:51.152Z,13.10
2019-02-20T15:16:18.642Z,11.57
2019-02-20T15:18:46.394Z,12.87
2019-02-20T15:21:14.197Z,13.30
2019-02-20T15:23:42.194Z,13.33
2019-02-20T15:26:09.838Z,13.77
2019-02-20T15:28:37.576Z,14.17
2019-02-20T15:31:05.486Z,14.53
2019-02-20T15:33:33.215Z,14.93
2019-02-20T15:36:01.043Z,15.73
2019-02-20T15:38:28.924Z,15.90
2019-02-20T15:40:56.894Z,16.07
2019-02-20T15:43:24.735Z,15.67
2019-02-20T15:45:52.639Z,15.53
2019-02-20T15:48:23.326Z,15.90
2019-02-20T15:50:50.630Z,16.67
2019-02-20T15:53:18.433Z,16.53
2019-02-20T15:55:47.019Z,18.40
2019-02-20T15:58:15.389Z,18.83
2019-02-20T16:00:43.286Z,17.97
2019-02-20T16:03:10.959Z,18.57
2019-02-20T16:05:38.939Z,18.67
2019-02-20T16:08:07.360Z,21.00
2019-02-20T16:10:35.224Z,19.17
2019-02-20T16:13:03.743Z,20.10
2019-02-20T16:15:31.707Z,20.00
2019-02-20T16:17:59.449Z,20.63
2019-02-20T16:20:27.258Z,19.27
2019-02-20T16:22:55.105Z,19.70
2019-02-20T16:25:23.811Z,21.03
2019-02-20T16:27:51.783Z,20.40
2019-02-20T16:30:19.747Z,20.80
2019-02-20T16:32:47.675Z,19.77
2019-02-20T16:35:15.750Z,20.63
2019-02-20T16:37:43.688Z,20.17
2019-02-20T16:40:12.061Z,20.83
2019-02-20T16:42:40.014Z,21.30
2019-02-20T16:45:16.174Z,20.80
2019-02-20T16:47:43.988Z,20.23
2019-02-20T16:50:12.256Z,22.70
2019-02-20T16:52:40.218Z,22.33
2019-02-20T16:55:08.053Z,21.73
2019-02-20T16:57:37.113Z,22.33
2019-02-20T17:00:05.603Z,21.80
2019-02-20T17:02:33.515Z,21.63
2019-02-20T17:05:03.714Z,20.73
2019-02-20T17:07:32.128Z,22.73
2019-02-20T17:10:00.038Z,22.10
2019-02-20T17:12:30.397Z,23.63
2019-02-20T17:14:58.226Z,22.40
2019-02-20T17:17:26.228Z,22.87
2019-02-20T17:19:54.048Z,22.37
2019-02-20T17:22:22.363Z,23.80
2019-02-20T17:24:50.143Z,22.83
2019-02-20T17:27:18.111Z,22.10
2019-02-20T17:29:46.043Z,23.57
2019-02-20T17:32:13.993Z,22.43
2019-02-20T17:34:41.863Z,22.10
2019-02-20T17:37:09.779Z,23.50
2019-02-20T17:39:38.190Z,23.23
2019-02-20T17:42:06.389Z,22.53
2019-02-20T17:44:36.499Z,22.67
2019-02-20T17:47:04.943Z,23.57
2019-02-20T17:49:33.133Z,23.23
2019-02-20T17:52:01.100Z,23.73
2019-02-20T17:54:30.849Z,22.73
2019-02-20T17:56:58.818Z,23.50
2019-02-20T17:59:26.629Z,23.03
2019-02-20T18:01:54.573Z,22.57
2019-02-20T18:04:22.437Z,22.60
2019-02-20T18:06:50.458Z,21.97
2019-02-20T18:09:18.361Z,22.73
2019-02-20T18:11:46.573Z,22.50
2019-02-20T18:14:14.448Z,22.93
2019-02-20T18:16:42.375Z,21.77
2019-02-20T18:19:10.880Z,22.57
2019-02-20T18:21:38.836Z,21.23
2019-02-20T18:24:07.016Z,22.77
2019-02-20T18:26:35.371Z,22.00
2019-02-20T18:29:03.359Z,22.53
2019-02-20T18:31:31.358Z,20.83
2019-02-20T18:33:59.133Z,21.47
2019-02-20T18:36:27.523Z,20.87
2019-02-20T18:38:55.510Z,20.80
2019-02-20T18:41:23.653Z,20.43
2019-02-20T18:43:51.627Z,20.87
2019-02-20T18:46:19.563Z,20.60
2019-02-20T18:48:47.550Z,20.83
2019-02-20T18:51:15.898Z,20.67
2019-02-20T18:55:14.334Z,21.43
2019-02-20T18:57:39.649Z,19.60
2019-02-20T19:00:26.042Z,20.73
2019-02-20T19:02:54.109Z,20.90
2019-02-20T19:05:22.060Z,20.77
2019-02-20T19:07:50.288Z,20.27
2019-02-20T19:10:25.184Z,20.53
2019-02-20T19:13:57.296Z,20.70
2019-02-20T19:17:21.141Z,18.50
2019-02-20T19:20:11.162Z,17.60
2019-02-20T19:23:08.869Z,19.40
2019-02-20T19:26:16.886Z,18.47
2019-02-20T19:29:22.901Z,17.70
2019-02-20T19:32:24.635Z,18.37
2019-02-20T19:35:44.944Z,17.77
2019-02-20T19:39:00.574Z,16.90
2019-02-20T19:41:50.609Z,18.30
2019-02-20T19:44:44.281Z,17.87
2019-02-20T19:47:35.720Z,17.07
2019-02-20T19:50:38.327Z,20.20
2019-02-20T19:53:14.947Z,19.40
2019-02-20T19:56:09.081Z,20.00
2019-02-20T19:59:16.320Z,20.80
2019-02-20T20:02:28.227Z,19.93
2019-02-20T20:05:14.173Z,21.90
2019-02-20T20:07:54.684Z,22.00
2019-02-20T20:10:46.659Z,21.70
2019-02-20T20:13:48.688Z,20.97
2019-02-20T20:16:37.203Z,17.37
2019-02-20T20:19:32.059Z,17.67
2019-02-20T20:22:20.351Z,15.23
2019-02-20T20:25:04.597Z,15.40
2019-02-20T20:28:21.687Z,15.93
2019-02-20T20:31:25.179Z,15.13
2019-02-20T20:34:22.335Z,14.30
2019-02-20T20:37:15.952Z,14.50
2019-02-20T20:40:11.491Z,14.77
2019-02-20T20:43:38.986Z,13.53
2019-02-20T20:46:54.543Z,14.33
2019-02-20T20:49:59.492Z,15.83
2019-02-20T20:52:55.971Z,14.77
2019-02-20T20:55:58.766Z,13.67
2019-02-20T20:59:04.749Z,15.90
2019-02-20T21:02:03.066Z,14.23
2019-02-20T21:05:12.341Z,14.27
2019-02-20T21:08:10.491Z,15.40
2019-02-20T21:11:37.936Z,14.97
2019-02-20T21:14:47.471Z,14.50
2019-02-20T21:17:41.521Z,17.23
2019-02-20T21:20:31.778Z,16.80
2019-02-20T21:23:49.986Z,17.87
2019-02-20T21:27:05.036Z,17.93
2019-02-20T21:30:14.571Z,18.30
2019-02-20T21:33:17.116Z,20.30
2019-02-20T21:36:32.611Z,19.17
2019-02-20T21:39:32.056Z,18.13
2019-02-20T21:42:44.012Z,18.47
2019-02-20T21:45:50.305Z,18.77
2019-02-20T21:49:05.531Z,18.00
2019-02-20T21:52:25.271Z,16.20
2019-02-20T21:55:15.302Z,14.87
2019-02-20T21:58:15.371Z,13.90
2019-02-20T22:01:19.411Z,14.97
2019-02-20T22:04:25.666Z,14.97
2019-02-20T22:07:49.892Z,14.33
2019-02-20T22:10:51.322Z,14.23
2019-02-20T22:13:31.541Z,14.37
2019-02-20T22:16:31.865Z,15.50
2019-02-20T22:19:47.603Z,12.90
2019-02-20T22:22:53.996Z,14.37
2019-02-20T22:26:08.806Z,14.30
2019-02-20T22:28:58.591Z,13.67
2019-02-20T22:31:55.481Z,13.63
2019-02-20T22:34:47.776Z,12.73
2019-02-20T22:38:01.721Z,12.27
2019-02-20T22:40:55.565Z,13.13
2019-02-20T22:44:10.105Z,13.17
2019-02-20T22:46:52.661Z,13.13
2019-02-20T22:50:02.575Z,13.93
2019-02-20T22:52:42.717Z,13.43
2019-02-20T22:55:43.168Z,14.07
2019-02-20T22:58:38.316Z,13.57
2019-02-20T23:01:52.232Z,13.33
2019-02-20T23:04:50.295Z,14.50
2019-02-20T23:07:38.394Z,14.13
2019-02-20T23:10:27.651Z,12.90
2019-02-20T23:13:45.633Z,14.33
2019-02-20T23:16:56.928Z,14.37
2019-02-20T23:19:32.766Z,14.23
2019-02-20T23:22:18.013Z,14.33
2019-02-20T23:24:49.242Z,14.20
2019-02-20T23:27:23.365Z,13.97
2019-02-20T23:29:50.831Z,14.53
2019-02-20T23:32:18.740Z,14.43
2019-02-20T23:34:46.360Z,14.47
2019-02-20T23:37:17.011Z,14.93
2019-02-20T23:39:44.861Z,14.67
2019-02-20T23:42:12.716Z,14.73
2019-02-20T23:44:40.627Z,15.00
2019-02-20T23:47:11.387Z,14.37
2019-02-20T23:49:39.641Z,15.80
2019-02-20T23:52:10.284Z,15.83
2019-02-20T23:54:37.826Z,15.30
2019-02-20T23:57:14.755Z,14.90
2019-02-20T23:59:49.159Z,15.10
